Time;durP1;ratioP1;P1;durP2;ratioP2;P2;SDS_P1;SDS_P2;PMS_P1;PMS_P2;Temp;Humidity;BMP_temperature;BMP_pressure;BME280_temperature;BME280_humidity;BME280_pressure;Samples;Min_cycle;Max_cycle;Signal;HPM_P1;HPM_P2
2024/01/17 00:00:11;;;;;;;2.88;2.67;;;;;;;-2.99;100.00;91531.63;2091739;28;20151;-79
2024/01/17 00:01:12;;;;;;;3.03;2.70;;;;;;;-3.02;100.00;91520.03;2092846;28;20024;-79
2024/01/17 00:02:13;;;;;;;2.70;2.45;;;;;;;-2.91;100.00;91527.91;2107607;28;20039;-78
2024/01/17 00:03:14;;;;;;;3.00;2.70;;;;;;;-2.96;100.00;91517.81;2101181;28;20510;-79
2024/01/17 00:04:16;;;;;;;2.75;2.55;;;;;;;-2.88;100.00;91519.31;2100114;28;20090;-82
2024/01/17 00:05:17;;;;;;;2.33;2.22;;;;;;;-2.83;100.00;91511.13;2092915;28;20039;-80
2024/01/17 00:06:18;;;;;;;2.80;2.60;;;;;;;-2.84;100.00;91510.38;2086885;28;20060;-79
2024/01/17 00:07:20;;;;;;;3.17;2.97;;;;;;;-2.79;100.00;91512.63;2092033;28;20064;-79
2024/01/17 00:08:21;;;;;;;2.63;2.42;;;;;;;-2.83;100.00;91511.13;2098089;28;20455;-78
2024/01/17 00:09:22;;;;;;;2.80;2.60;;;;;;;-2.81;100.00;91514.09;2101666;28;20115;-79
2024/01/17 00:10:24;;;;;;;2.70;2.50;;;;;;;-2.74;100.00;91508.13;2092936;28;20032;-78
2024/01/17 00:11:25;;;;;;;2.78;2.58;;;;;;;-2.70;100.00;91508.91;2093255;28;20090;-79
2024/01/17 00:12:26;;;;;;;2.63;2.42;;;;;;;-2.84;100.00;91512.97;2099447;28;20020;-78
2024/01/17 00:13:27;;;;;;;2.60;2.40;;;;;;;-2.83;100.00;91500.66;2096212;28;20039;-78
2024/01/17 00:14:28;;;;;;;2.67;2.47;;;;;;;-2.74;100.00;91503.66;2103818;28;20493;-79
2024/01/17 00:15:30;;;;;;;3.13;2.80;;;;;;;-2.82;100.00;91500.28;2105838;28;20172;-80
2024/01/17 00:16:31;;;;;;;2.95;2.75;;;;;;;-2.72;100.00;91495.44;2104279;28;20051;-79
2024/01/17 00:17:32;;;;;;;2.60;2.40;;;;;;;-2.64;100.00;91497.69;2096226;28;20029;-79
2024/01/17 00:18:33;;;;;;;2.90;2.70;;;;;;;-2.63;100.00;91493.97;2090728;28;20025;-80
2024/01/17 00:19:35;;;;;;;3.00;2.70;;;;;;;-2.60;100.00;91498.44;2094200;28;20058;-79
2024/01/17 00:20:35;;;;;;;2.78;2.58;;;;;;;-2.56;100.00;91496.56;2106666;28;20050;-80
2024/01/17 00:21:37;;;;;;;2.97;2.78;;;;;;;-2.72;100.00;91500.66;2104173;28;20031;-78
2024/01/17 00:22:38;;;;;;;3.00;2.80;;;;;;;-2.59;100.00;91496.56;2096529;28;20041;-79
2024/01/17 00:23:39;;;;;;;2.90;2.70;;;;;;;-2.59;100.00;91494.72;2096102;28;20024;-79
2024/01/17 00:24:40;;;;;;;3.10;2.90;;;;;;;-2.40;100.00;91493.59;2096401;28;20024;-80
2024/01/17 00:25:41;;;;;;;2.88;2.67;;;;;;;-2.43;100.00;91491.72;2090320;28;20025;-79
2024/01/17 00:26:42;;;;;;;2.78;2.58;;;;;;;-2.32;100.00;91487.25;2086820;28;20029;-78
2024/01/17 00:27:43;;;;;;;2.90;2.70;;;;;;;-2.36;100.00;91480.50;2100521;28;20579;-79
2024/01/17 00:28:44;;;;;;;3.20;3.00;;;;;;;-2.24;100.00;91482.72;2100120;28;20055;-78
2024/01/17 00:29:45;;;;;;;3.38;3.00;;;;;;;-2.31;100.00;91488.72;2091967;28;20503;-79
2024/01/17 00:30:46;;;;;;;3.33;3.03;;;;;;;-2.37;100.00;91494.69;2094872;28;20024;-78
2024/01/17 00:31:47;;;;;;;2.80;2.47;;;;;;;-2.30;100.00;91494.69;2098940;28;20110;-78
2024/01/17 00:32:48;;;;;;;2.90;2.70;;;;;;;-2.32;100.00;91484.63;2091187;28;20040;-79
2024/01/17 00:33:49;;;;;;;3.08;2.88;;;;;;;-2.36;100.00;91483.88;2094604;28;20501;-79
2024/01/17 00:34:51;;;;;;;3.20;3.00;;;;;;;-2.31;100.00;91480.13;2092502;28;20051;-78
2024/01/17 00:35:52;;;;;;;2.97;2.78;;;;;;;-2.09;100.00;91480.84;2095903;28;20035;-79
2024/01/17 00:36:53;;;;;;;3.17;2.95;;;;;;;-2.10;100.00;91485.34;2108524;28;20023;-78
2024/01/17 00:37:53;;;;;;;3.20;3.00;;;;;;;-2.09;100.00;91478.25;2108205;28;20028;-80
2024/01/17 00:38:55;;;;;;;3.40;3.20;;;;;;;-2.23;100.00;91479.00;2108679;28;20774;-79
2024/01/17 00:39:56;;;;;;;3.25;3.00;;;;;;;-2.12;100.00;91474.50;2088643;28;20060;-78
2024/01/17 00:40:57;;;;;;;3.25;3.05;;;;;;;-2.15;100.00;91472.66;2092122;28;20079;-78
2024/01/17 00:41:58;;;;;;;3.38;3.17;;;;;;;-2.00;100.00;91477.84;2100144;28;20365;-78
2024/01/17 00:42:59;;;;;;;3.60;3.30;;;;;;;-2.03;100.00;91472.22;2090862;28;20055;-78
2024/01/17 00:44:02;;;;;;;3.40;3.20;;;;;;;-1.88;100.00;91467.72;2091264;28;20105;-79
2024/01/17 00:45:06;;;;;;;3.60;3.40;;;;;;;-2.04;100.00;91475.25;2093821;28;20033;-79
2024/01/17 00:46:07;;;;;;;3.75;3.50;;;;;;;-1.98;100.00;91472.97;2091929;28;20047;-79
2024/01/17 00:47:08;;;;;;;3.60;3.38;;;;;;;-2.05;100.00;91478.97;2104373;28;20040;-80
2024/01/17 00:48:09;;;;;;;3.72;3.42;;;;;;;-1.97;100.00;91462.16;2105023;28;20035;-79
2024/01/17 00:49:13;;;;;;;3.22;3.03;;;;;;;-1.96;100.00;91465.50;2101783;28;20042;-79
2024/01/17 00:50:14;;;;;;;3.75;3.53;;;;;;;-1.89;100.00;91462.84;2086566;28;20498;-79
2024/01/17 00:51:25;;;;;;;3.90;3.20;;;;;;;-1.93;100.00;91462.88;2088316;28;20037;-81
2024/01/17 00:52:26;;;;;;;3.50;3.28;;;;;;;-1.96;100.00;91462.88;2094349;28;20063;-78
2024/01/17 00:53:27;;;;;;;3.75;3.47;;;;;;;-2.00;100.00;91462.16;2095082;28;20108;-80
2024/01/17 00:54:28;;;;;;;3.67;3.47;;;;;;;-1.92;100.00;91461.75;2085229;28;20108;-80
2024/01/17 00:55:29;;;;;;;3.92;3.63;;;;;;;-1.84;100.00;91462.50;2080158;28;20079;-78
2024/01/17 00:56:32;;;;;;;3.65;3.45;;;;;;;-1.77;100.00;91457.97;2086602;28;20025;-79
2024/01/17 00:57:33;;;;;;;3.85;3.55;;;;;;;-1.89;100.00;91461.00;2088516;28;20033;-80
2024/01/17 00:58:34;;;;;;;3.50;3.30;;;;;;;-1.87;100.00;91460.63;2092422;28;20025;-79
2024/01/17 00:59:35;;;;;;;3.92;3.63;;;;;;;-1.95;100.00;91451.28;2083923;28;20527;-78
2024/01/17 01:00:36;;;;;;;3.33;3.13;;;;;;;-1.84;100.00;91465.84;2095486;28;20028;-79
2024/01/17 01:01:37;;;;;;;3.88;3.58;;;;;;;-1.71;100.00;91454.94;2091697;28;20059;-79
2024/01/17 01:02:38;;;;;;;3.92;3.65;;;;;;;-1.83;100.00;91456.13;2082906;28;20032;-80
2024/01/17 01:03:39;;;;;;;3.90;3.60;;;;;;;-1.77;100.00;91454.59;2084023;28;20538;-80
2024/01/17 01:04:40;;;;;;;3.88;3.60;;;;;;;-1.82;100.00;91455.00;2091772;28;20059;-80
2024/01/17 01:05:41;;;;;;;3.90;3.60;;;;;;;-1.77;100.00;91454.59;2091045;28;20063;-81
2024/01/17 01:06:42;;;;;;;3.88;3.67;;;;;;;-1.65;100.00;91448.94;2099363;28;20024;-78
2024/01/17 01:07:44;;;;;;;4.07;3.78;;;;;;;-1.59;100.00;91451.91;2101625;28;20032;-78
2024/01/17 01:08:45;;;;;;;3.67;3.40;;;;;;;-1.71;100.00;91454.94;2093327;28;20450;-79
2024/01/17 01:09:46;;;;;;;3.30;3.10;;;;;;;-1.72;100.00;91453.47;2080768;28;20033;-79
2024/01/17 01:10:47;;;;;;;3.90;3.60;;;;;;;-1.75;100.00;91452.38;2088191;28;20075;-78
2024/01/17 01:11:48;;;;;;;4.03;3.72;;;;;;;-1.72;100.00;91443.72;2098043;28;20115;-78
2024/01/17 01:12:49;;;;;;;3.88;3.60;;;;;;;-1.75;100.00;91443.75;2091525;28;20439;-79
2024/01/17 01:13:50;;;;;;;4.22;3.83;;;;;;;-1.70;100.00;91449.34;2091211;28;20037;-79
2024/01/17 01:14:51;;;;;;;3.90;3.60;;;;;;;-1.54;100.00;91441.81;2100380;28;20775;-80
2024/01/17 01:15:51;;;;;;;4.30;4.00;;;;;;;-1.67;100.00;91442.59;2091533;28;20063;-78
2024/01/17 01:16:57;;;;;;;3.63;3.33;;;;;;;-1.69;100.00;91435.13;2086179;28;20024;-79
2024/01/17 01:17:58;;;;;;;3.65;3.45;;;;;;;-1.61;100.00;91444.44;2087185;28;20029;-80
2024/01/17 01:18:59;;;;;;;3.60;3.40;;;;;;;-1.63;100.00;91441.44;2085372;28;20025;-80
2024/01/17 01:20:01;;;;;;;4.00;3.70;;;;;;;-1.50;100.00;91435.78;2088271;28;20032;-80
2024/01/17 01:21:02;;;;;;;4.03;3.72;;;;;;;-1.42;100.00;91432.00;2090531;28;20025;-78
2024/01/17 01:22:04;;;;;;;3.92;3.63;;;;;;;-1.25;100.00;91430.44;2093768;28;20070;-83
2024/01/17 01:23:05;;;;;;;3.72;3.53;;;;;;;-1.25;100.00;91427.81;2102010;28;20117;-80
2024/01/17 01:24:06;;;;;;;3.72;3.47;;;;;;;-1.32;100.00;91429.34;2102601;28;20924;-81
2024/01/17 01:25:08;;;;;;;3.95;3.65;;;;;;;-1.22;100.00;91427.81;2100114;28;20028;-79
2024/01/17 01:26:09;;;;;;;4.40;4.00;;;;;;;-1.30;100.00;91424.47;2094730;28;20526;-79
2024/01/17 01:27:10;;;;;;;3.72;3.53;;;;;;;-1.38;100.00;91430.13;2087036;28;20033;-79
2024/01/17 01:28:11;;;;;;;4.10;3.80;;;;;;;-1.32;100.00;91424.13;2082655;28;20467;-79
2024/01/17 01:29:12;;;;;;;3.70;3.50;;;;;;;-1.41;100.00;91426.38;2076602;28;20124;-81
2024/01/17 01:30:13;;;;;;;4.07;3.78;;;;;;;-1.48;100.00;91420.44;2088444;28;20540;-81
2024/01/17 01:31:13;;;;;;;3.50;3.30;;;;;;;-1.41;100.00;91420.41;2091065;28;20036;-81
2024/01/17 01:32:14;;;;;;;3.58;3.38;;;;;;;-1.30;100.00;91421.84;2091959;28;20036;-78
2024/01/17 01:33:15;;;;;;;3.50;3.30;;;;;;;-1.18;100.00;91423.28;2101282;28;20103;-82
2024/01/17 01:34:16;;;;;;;3.53;3.33;;;;;;;-1.20;100.00;91415.03;2100372;28;20036;-82
2024/01/17 01:35:18;;;;;;;4.43;4.13;;;;;;;-1.24;100.00;91416.19;2083684;28;20040;-80
2024/01/17 01:36:19;;;;;;;4.05;3.80;;;;;;;-1.18;100.00;91412.81;2088743;28;20032;-79
2024/01/17 01:37:20;;;;;;;3.95;3.65;;;;;;;-1.25;100.00;91422.56;2087823;28;20033;-79
2024/01/17 01:38:20;;;;;;;4.15;3.85;;;;;;;-1.13;100.00;91411.66;2088650;28;20381;-81
2024/01/17 01:39:21;;;;;;;3.80;3.60;;;;;;;-1.14;100.00;91418.00;2096227;28;20036;-80
2024/01/17 01:40:22;;;;;;;3.95;3.65;;;;;;;-1.15;100.00;91422.50;2082692;28;20108;-81
2024/01/17 01:41:23;;;;;;;3.85;3.65;;;;;;;-1.28;100.00;91410.97;2093427;28;20033;-81
2024/01/17 01:42:24;;;;;;;3.90;3.70;;;;;;;-1.14;100.00;91412.75;2075463;28;20930;-82
2024/01/17 01:43:25;;;;;;;3.88;3.67;;;;;;;-1.15;100.00;91406.78;2086014;28;20033;-81
2024/01/17 01:44:26;;;;;;;3.80;3.60;;;;;;;-1.06;100.00;91404.47;2088267;28;20025;-79
2024/01/17 01:45:27;;;;;;;3.95;3.65;;;;;;;-1.10;100.00;91414.25;2079262;28;20041;-82
2024/01/17 01:46:29;;;;;;;3.78;3.58;;;;;;;-1.05;100.00;91407.84;2086911;28;20024;-81
2024/01/17 01:47:30;;;;;;;4.07;3.78;;;;;;;-1.03;100.00;91411.56;2091775;28;20029;-80
2024/01/17 01:48:32;;;;;;;3.75;3.55;;;;;;;-1.14;100.00;91418.78;2098724;28;20638;-83
2024/01/17 01:49:34;;;;;;;3.90;3.60;;;;;;;-1.05;100.00;91410.47;2088643;28;20119;-82
2024/01/17 01:50:35;;;;;;;3.70;3.50;;;;;;;-1.16;100.00;91410.53;2094310;28;20461;-80
2024/01/17 01:51:38;;;;;;;3.75;3.55;;;;;;;-1.19;100.00;91406.03;2087980;28;20060;-82
2024/01/17 01:52:42;;;;;;;4.28;3.97;;;;;;;-1.00;100.00;91409.31;2087408;28;20113;-83
2024/01/17 01:53:47;;;;;;;3.90;3.70;;;;;;;-0.93;100.00;91411.88;2086871;28;20025;-79
2024/01/17 01:54:49;;;;;;;3.80;3.50;;;;;;;-1.02;100.00;91402.56;2089305;28;20507;-82
2024/01/17 01:55:50;;;;;;;3.80;3.60;;;;;;;-1.12;100.00;91408.63;2095586;28;20091;-79
2024/01/17 01:56:54;;;;;;;4.38;4.07;;;;;;;-1.13;100.00;91411.66;2094945;28;20060;-81
2024/01/17 01:57:55;;;;;;;3.80;3.55;;;;;;;-0.91;100.00;91409.63;2087986;28;20032;-80
2024/01/17 01:58:58;;;;;;;3.88;3.60;;;;;;;-1.06;100.00;91417.56;2099856;28;20032;-82
2024/01/17 02:00:00;;;;;;;3.95;3.65;;;;;;;-1.12;100.00;91408.63;2096622;28;20037;-80
2024/01/17 02:01:02;;;;;;;3.63;3.42;;;;;;;-1.00;100.00;91412.69;2102509;28;20031;-82
2024/01/17 02:02:04;;;;;;;4.20;3.90;;;;;;;-0.98;100.00;91412.28;2082409;28;20036;-81
2024/01/17 02:03:06;;;;;;;4.13;3.80;;;;;;;-0.89;100.00;91412.59;2080465;28;20132;-81
2024/01/17 02:04:07;;;;;;;3.97;3.67;;;;;;;-0.90;100.00;91405.88;2090826;28;20037;-81
2024/01/17 02:05:09;;;;;;;3.80;3.50;;;;;;;-0.92;100.00;91403.66;2087028;28;20147;-79
2024/01/17 02:06:12;;;;;;;3.83;3.60;;;;;;;-0.88;100.00;91403.59;2087752;28;20028;-81
2024/01/17 02:07:14;;;;;;;4.10;3.80;;;;;;;-0.91;100.00;91399.16;2097394;28;20033;-81
2024/01/17 02:08:15;;;;;;;3.83;3.63;;;;;;;-0.83;100.00;91400.59;2103858;28;20476;-80
2024/01/17 02:09:16;;;;;;;4.03;3.75;;;;;;;-0.90;100.00;91396.13;2098433;28;20028;-80
2024/01/17 02:10:18;;;;;;;3.90;3.65;;;;;;;-0.94;100.00;91397.28;2103714;28;20097;-80
2024/01/17 02:11:19;;;;;;;3.90;3.70;;;;;;;-0.94;100.00;91399.91;2092157;28;20501;-79
2024/01/17 02:12:21;;;;;;;3.80;3.60;;;;;;;-0.91;100.00;91396.53;2097433;28;20090;-80
2024/01/17 02:13:22;;;;;;;3.83;3.63;;;;;;;-0.74;100.00;91392.28;2094262;28;20032;-80
2024/01/17 02:14:24;;;;;;;4.10;3.80;;;;;;;-0.75;100.00;91391.50;2076726;28;20106;-81
2024/01/17 02:15:25;;;;;;;3.97;3.78;;;;;;;-0.65;100.00;91393.31;2085713;28;20041;-80
2024/01/17 02:16:26;;;;;;;4.07;3.78;;;;;;;-0.70;100.00;91388.50;2086593;28;20025;-80
2024/01/17 02:17:27;;;;;;;3.85;3.65;;;;;;;-0.75;100.00;91391.50;2090442;28;20020;-80
2024/01/17 02:18:28;;;;;;;3.60;3.40;;;;;;;-0.75;100.00;91394.13;2096832;28;20028;-78
2024/01/17 02:19:29;;;;;;;4.00;3.70;;;;;;;-0.71;100.00;91386.97;2096144;28;20537;-81
2024/01/17 02:20:33;;;;;;;3.50;3.30;;;;;;;-0.60;100.00;91395.53;2088731;28;20122;-81
2024/01/17 02:21:34;;;;;;;4.07;3.80;;;;;;;-0.65;100.00;91379.47;2087733;28;20112;-80
2024/01/17 02:22:35;;;;;;;4.03;3.80;;;;;;;-0.64;100.00;91380.94;2095088;28;20035;-79
2024/01/17 02:23:36;;;;;;;3.65;3.45;;;;;;;-0.57;100.00;91384.25;2105633;28;20031;-79
2024/01/17 02:24:37;;;;;;;4.13;3.83;;;;;;;-0.67;100.00;91381.72;2095853;28;20436;-80
2024/01/17 02:25:38;;;;;;;3.53;3.33;;;;;;;-0.73;100.00;91381.41;2092566;28;20571;-81
2024/01/17 02:26:39;;;;;;;3.70;3.50;;;;;;;-0.75;100.00;91386.25;2078593;28;20032;-81
2024/01/17 02:27:40;;;;;;;4.05;3.75;;;;;;;-0.57;100.00;91376.41;2083541;28;20052;-80
2024/01/17 02:28:41;;;;;;;3.45;3.25;;;;;;;-0.61;100.00;91375.69;2093076;28;20030;-82
2024/01/17 02:29:45;;;;;;;3.95;3.75;;;;;;;-0.56;100.00;91380.50;2091462;28;20502;-81
2024/01/17 02:30:46;;;;;;;3.80;3.60;;;;;;;-0.64;100.00;91376.44;2082216;28;20031;-79
2024/01/17 02:31:47;;;;;;;4.03;3.80;;;;;;;-0.63;100.00;91383.19;2090590;28;20119;-79
2024/01/17 02:32:48;;;;;;;3.83;3.63;;;;;;;-0.58;100.00;91377.50;2102947;28;20039;-81
2024/01/17 02:33:49;;;;;;;3.90;3.70;;;;;;;-0.55;100.00;91368.13;2092298;28;20504;-81
2024/01/17 02:34:50;;;;;;;3.60;3.40;;;;;;;-0.61;100.00;91373.06;2075923;28;20065;-81
2024/01/17 02:35:51;;;;;;;4.05;3.83;;;;;;;-0.61;100.00;91359.19;2083133;28;20053;-80
2024/01/17 02:36:52;;;;;;;3.67;3.45;;;;;;;-0.49;100.00;91363.19;2089609;28;20032;-80
2024/01/17 02:37:53;;;;;;;3.90;3.70;;;;;;;-0.34;100.00;91361.94;2089070;28;20024;-81
2024/01/17 02:38:54;;;;;;;3.95;3.75;;;;;;;-0.46;100.00;91357.19;2094469;28;20131;-79
2024/01/17 02:39:55;;;;;;;3.90;3.65;;;;;;;-0.44;100.00;91349.66;2094561;28;20710;-81
2024/01/17 02:40:56;;;;;;;3.70;3.50;;;;;;;-0.46;100.00;91350.03;2088875;28;20032;-79
2024/01/17 02:41:57;;;;;;;3.85;3.65;;;;;;;-0.48;100.00;91347.06;2079968;28;20558;-80
2024/01/17 02:42:58;;;;;;;3.58;3.38;;;;;;;-0.57;100.00;91347.53;2103267;28;20440;-79
2024/01/17 02:43:59;;;;;;;4.10;3.80;;;;;;;-0.54;100.00;91353.88;2108944;28;20069;-79
2024/01/17 02:45:00;;;;;;;3.85;3.60;;;;;;;-0.64;100.00;91341.59;2097718;28;20035;-82
2024/01/17 02:46:01;;;;;;;4.22;4.00;;;;;;;-0.59;100.00;91341.91;2104562;28;20506;-79
2024/01/17 02:47:02;;;;;;;4.22;3.92;;;;;;;-0.58;100.00;91335.53;2103770;28;20100;-81
2024/01/17 02:48:04;;;;;;;4.15;3.85;;;;;;;-0.39;100.00;91344.00;2102543;28;20566;-81
2024/01/17 02:49:08;;;;;;;3.88;3.67;;;;;;;-0.49;100.00;91342.94;2101586;28;20080;-80
2024/01/17 02:50:14;;;;;;;3.85;3.55;;;;;;;-0.48;100.00;91343.69;2095660;28;20493;-80
2024/01/17 02:51:16;;;;;;;3.90;3.60;;;;;;;-0.45;100.00;91335.03;2088881;28;20025;-80
2024/01/17 02:52:17;;;;;;;4.10;3.83;;;;;;;-0.45;100.00;91345.53;2087089;28;20029;-80
2024/01/17 02:53:18;;;;;;;3.58;3.38;;;;;;;-0.37;100.00;91331.22;2086756;28;20513;-79
2024/01/17 02:54:19;;;;;;;4.03;3.83;;;;;;;-0.37;100.00;91345.06;2087883;28;20657;-79
2024/01/17 02:55:22;;;;;;;3.83;3.53;;;;;;;-0.42;100.00;91336.88;2082271;28;20025;-78
2024/01/17 02:56:23;;;;;;;3.72;3.53;;;;;;;-0.32;100.00;91328.16;2089372;28;20029;-80
2024/01/17 02:57:24;;;;;;;3.53;3.33;;;;;;;-0.43;100.00;91327.53;2097569;28;20016;-80
2024/01/17 02:58:25;;;;;;;3.78;3.58;;;;;;;-0.46;100.00;91329.03;2080237;28;20163;-80
2024/01/17 02:59:26;;;;;;;3.80;3.60;;;;;;;-0.54;100.00;91323.13;2079960;28;20056;-80
2024/01/17 03:00:27;;;;;;;4.03;3.72;;;;;;;-0.40;100.00;91337.97;2101982;28;20038;-80
2024/01/17 03:01:28;;;;;;;4.38;4.07;;;;;;;-0.38;100.00;91319.22;2101338;28;20546;-81
2024/01/17 03:02:29;;;;;;;4.00;3.70;;;;;;;-0.49;100.00;91324.56;2096183;28;20031;-79
2024/01/17 03:03:30;;;;;;;3.88;3.67;;;;;;;-0.43;100.00;91327.53;2088240;28;20107;-78
2024/01/17 03:04:31;;;;;;;3.85;3.65;;;;;;;-0.47;100.00;91324.19;2096127;28;20366;-80
2024/01/17 03:05:32;;;;;;;3.60;3.40;;;;;;;-0.30;100.00;91321.38;2100456;28;20024;-79
2024/01/17 03:06:34;;;;;;;3.80;3.60;;;;;;;-0.33;100.00;91330.03;2079601;28;20018;-80
2024/01/17 03:07:35;;;;;;;3.90;3.70;;;;;;;-0.42;100.00;91319.25;2083757;28;20029;-80
2024/01/17 03:08:36;;;;;;;3.70;3.50;;;;;;;-0.39;100.00;91323.00;2088729;28;20032;-80
2024/01/17 03:09:37;;;;;;;3.55;3.35;;;;;;;-0.34;100.00;91325.94;2084997;28;20029;-80
2024/01/17 03:10:38;;;;;;;3.63;3.42;;;;;;;-0.22;100.00;91331.78;2097277;28;20103;-79
2024/01/17 03:11:40;;;;;;;3.72;3.53;;;;;;;-0.31;100.00;91330.41;2108080;28;20024;-78
2024/01/17 03:12:41;;;;;;;3.97;3.67;;;;;;;-0.29;100.00;91327.38;2091459;28;20050;-79
2024/01/17 03:13:42;;;;;;;3.85;3.65;;;;;;;-0.23;100.00;91325.81;2083730;28;20044;-78
2024/01/17 03:14:43;;;;;;;3.55;3.35;;;;;;;-0.36;100.00;91328.19;2099850;28;20184;-78
2024/01/17 03:15:44;;;;;;;3.50;3.30;;;;;;;-0.38;100.00;91321.84;2099215;28;20078;-80
2024/01/17 03:16:46;;;;;;;3.90;3.70;;;;;;;-0.23;100.00;91327.69;2109186;28;20063;-78
2024/01/17 03:17:47;;;;;;;4.30;4.00;;;;;;;-0.29;100.00;91324.75;2096306;28;20056;-80
2024/01/17 03:18:48;;;;;;;4.20;3.97;;;;;;;-0.29;100.00;91324.75;2097282;28;20038;-80
2024/01/17 03:19:49;;;;;;;4.00;3.80;;;;;;;-0.28;100.00;91332.22;2103337;28;20031;-80
2024/01/17 03:20:50;;;;;;;4.40;4.10;;;;;;;-0.31;100.00;91319.91;2105664;28;20099;-81
2024/01/17 03:21:51;;;;;;;3.78;3.58;;;;;;;-0.20;100.00;91327.66;2096533;28;20187;-80
2024/01/17 03:22:53;;;;;;;3.78;3.47;;;;;;;-0.15;100.00;91315.97;2093235;28;20307;-79
2024/01/17 03:23:54;;;;;;;4.78;4.38;;;;;;;-0.26;100.00;91316.84;2099186;28;20071;-79
2024/01/17 03:24:55;;;;;;;4.55;4.18;;;;;;;-0.31;100.00;91322.53;2084351;28;20025;-80
2024/01/17 03:25:56;;;;;;;3.85;3.65;;;;;;;-0.22;100.00;91313.41;2083482;28;20524;-78
2024/01/17 03:26:57;;;;;;;3.95;3.75;;;;;;;-0.27;100.00;91315.34;2100387;28;20771;-80
2024/01/17 03:27:58;;;;;;;4.18;3.88;;;;;;;-0.29;100.00;91314.25;2098654;28;20071;-78
2024/01/17 03:28:59;;;;;;;3.95;3.67;;;;;;;-0.39;100.00;91309.88;2088079;28;20020;-81
2024/01/17 03:30:00;;;;;;;4.15;3.85;;;;;;;-0.29;100.00;91307.13;2097809;28;20035;-77
2024/01/17 03:31:02;;;;;;;3.70;3.50;;;;;;;-0.30;100.00;91310.91;2105235;28;20024;-79
2024/01/17 03:32:07;;;;;;;3.80;3.60;;;;;;;-0.30;100.00;91307.53;2097503;28;20029;-81
2024/01/17 03:33:08;;;;;;;4.10;3.80;;;;;;;-0.28;100.00;91305.97;2090173;28;20052;-79
2024/01/17 03:34:09;;;;;;;4.03;3.72;;;;;;;-0.36;100.00;91301.19;2093369;28;20510;-79
2024/01/17 03:35:12;;;;;;;4.20;3.90;;;;;;;-0.26;100.00;91308.97;2101820;28;20028;-80
2024/01/17 03:36:12;;;;;;;3.88;3.67;;;;;;;-0.29;100.00;91306.38;2091006;28;20642;-78
2024/01/17 03:37:13;;;;;;;4.00;3.80;;;;;;;-0.18;100.00;91301.75;2093196;28;20506;-80
2024/01/17 03:38:18;;;;;;;3.80;3.60;;;;;;;-0.06;100.00;91295.97;2095495;28;20059;-78
2024/01/17 03:39:21;;;;;;;4.43;4.13;;;;;;;-0.09;100.00;91298.66;2101685;28;20028;-79
2024/01/17 03:40:22;;;;;;;4.40;4.10;;;;;;;-0.18;100.00;91291.25;2108021;28;20038;-80
2024/01/17 03:41:26;;;;;;;4.22;3.92;;;;;;;-0.11;100.00;91290.44;2106066;28;20472;-80
2024/01/17 03:42:27;;;;;;;4.40;4.10;;;;;;;-0.23;100.00;91293.56;2097339;28;20078;-79
2024/01/17 03:43:28;;;;;;;3.78;3.58;;;;;;;-0.24;100.00;91284.22;2090696;28;20039;-79
2024/01/17 03:44:29;;;;;;;3.90;3.70;;;;;;;-0.31;100.00;91285.78;2106652;28;20035;-78
2024/01/17 03:45:30;;;;;;;4.07;3.78;;;;;;;-0.21;100.00;91278.91;2114598;28;20383;-79
2024/01/17 03:46:32;;;;;;;4.35;4.05;;;;;;;-0.19;100.00;91274.00;2110809;28;20027;-79
2024/01/17 03:47:33;;;;;;;3.72;3.53;;;;;;;-0.27;100.00;91275.97;2096346;28;20055;-80
2024/01/17 03:48:34;;;;;;;3.80;3.60;;;;;;;-0.17;100.00;91269.13;2091121;28;20048;-79
2024/01/17 03:49:34;;;;;;;4.45;4.15;;;;;;;-0.16;100.00;91267.97;2095882;28;20088;-77
2024/01/17 03:50:35;;;;;;;3.83;3.63;;;;;;;-0.26;100.00;91261.72;2096488;28;20028;-80
2024/01/17 03:51:39;;;;;;;3.90;3.67;;;;;;;-0.28;100.00;91260.63;2094270;28;20455;-79
2024/01/17 03:52:43;;;;;;;3.65;3.45;;;;;;;-0.28;100.00;91250.84;2087793;28;20033;-80
2024/01/17 03:53:46;;;;;;;4.07;3.70;;;;;;;-0.31;100.00;91256.91;2089577;28;20461;-79
2024/01/17 03:54:47;;;;;;;4.00;3.70;;;;;;;-0.25;100.00;91254.59;2088622;28;20054;-78
2024/01/17 03:55:48;;;;;;;3.40;3.20;;;;;;;-0.24;100.00;91253.44;2096699;28;20029;-80
2024/01/17 03:56:52;;;;;;;3.85;3.65;;;;;;;-0.25;100.00;91249.34;2097558;28;20390;-78
2024/01/17 03:57:53;;;;;;;3.80;3.60;;;;;;;-0.26;100.00;91242.59;2101350;28;20468;-81
2024/01/17 03:58:54;;;;;;;3.38;3.17;;;;;;;-0.20;100.00;91235.03;2109030;28;20019;-78
2024/01/17 03:59:55;;;;;;;3.83;3.63;;;;;;;-0.04;100.00;91233.31;2103697;28;20035;-79
2024/01/17 04:00:56;;;;;;;3.55;3.35;;;;;;;-0.02;100.00;91238.16;2097300;28;20020;-78
2024/01/17 04:01:57;;;;;;;3.78;3.53;;;;;;;0.01;100.00;91226.88;2089695;28;20032;-79
2024/01/17 04:02:58;;;;;;;3.60;3.40;;;;;;;0.09;100.00;91222.25;2103191;28;20019;-77
2024/01/17 04:03:59;;;;;;;3.50;3.30;;;;;;;0.07;100.00;91224.56;2097716;28;20377;-78
2024/01/17 04:05:00;;;;;;;3.35;3.15;;;;;;;-0.01;100.00;91222.00;2080924;28;20373;-81
2024/01/17 04:06:01;;;;;;;3.60;3.40;;;;;;;-0.02;100.00;91212.66;2080453;28;20497;-77
2024/01/17 04:07:02;;;;;;;3.38;3.17;;;;;;;-0.05;100.00;91213.44;2080764;28;20071;-81
2024/01/17 04:08:03;;;;;;;3.40;3.20;;;;;;;-0.04;100.00;91209.69;2089667;28;20028;-78
2024/01/17 04:09:05;;;;;;;3.55;3.35;;;;;;;-0.05;100.00;91205.56;2089753;28;20104;-80
2024/01/17 04:10:06;;;;;;;3.65;3.45;;;;;;;-0.09;100.00;91202.25;2089790;28;20074;-79
2024/01/17 04:11:07;;;;;;;3.50;3.30;;;;;;;-0.17;100.00;91197.50;2097714;28;20043;-79
2024/01/17 04:12:08;;;;;;;3.50;3.30;;;;;;;0.00;100.00;91199.13;2088803;28;20155;-79
2024/01/17 04:13:09;;;;;;;3.53;3.33;;;;;;;-0.05;100.00;91192.41;2096643;28;20078;-79
2024/01/17 04:14:10;;;;;;;3.40;3.20;;;;;;;-0.07;100.00;91196.59;2088262;28;20120;-80
2024/01/17 04:15:11;;;;;;;3.40;3.20;;;;;;;-0.04;100.00;91187.94;2097239;28;20099;-79
2024/01/17 04:16:12;;;;;;;3.55;3.35;;;;;;;0.01;100.00;91181.50;2096784;28;20067;-79
2024/01/17 04:17:13;;;;;;;3.58;3.38;;;;;;;-0.09;100.00;91178.63;2089205;28;20064;-79
2024/01/17 04:18:14;;;;;;;3.80;3.60;;;;;;;-0.05;100.00;91171.41;2090855;28;20082;-80
2024/01/17 04:19:15;;;;;;;3.75;3.55;;;;;;;0.02;100.00;91175.84;2098678;28;20024;-80
2024/01/17 04:20:15;;;;;;;3.95;3.72;;;;;;;0.09;100.00;91169.72;2094565;28;20059;-78
2024/01/17 04:21:21;;;;;;;3.33;3.15;;;;;;;0.15;100.00;91162.91;2079309;28;20411;-79
2024/01/17 04:22:24;;;;;;;3.40;3.20;;;;;;;0.15;100.00;91174.16;2086128;28;20362;-79
2024/01/17 04:23:25;;;;;;;3.40;3.20;;;;;;;0.06;100.00;91167.91;2098142;28;20139;-79
2024/01/17 04:24:26;;;;;;;3.40;3.20;;;;;;;0.04;100.00;91163.03;2079524;28;20047;-79
2024/01/17 04:25:27;;;;;;;3.45;3.17;;;;;;;0.08;100.00;91166.34;2080475;28;20021;-78
2024/01/17 04:26:28;;;;;;;3.55;3.35;;;;;;;-0.01;100.00;91158.25;2097926;28;20101;-80
2024/01/17 04:27:29;;;;;;;3.33;3.13;;;;;;;0.03;100.00;91161.56;2101798;28;20044;-79
2024/01/17 04:28:29;;;;;;;3.22;3.03;;;;;;;-0.01;100.00;91158.97;2091805;28;20128;-77
2024/01/17 04:29:30;;;;;;;3.60;3.40;;;;;;;0.06;100.00;91149.53;2100260;28;20112;-78
2024/01/17 04:30:32;;;;;;;3.45;3.25;;;;;;;0.02;100.00;91149.56;2097367;28;20017;-77
2024/01/17 04:31:33;;;;;;;3.33;3.13;;;;;;;0.14;100.00;91154.28;2094607;28;20032;-80
2024/01/17 04:32:35;;;;;;;3.50;3.30;;;;;;;0.13;100.00;91149.41;2101244;28;20024;-78
2024/01/17 04:33:36;;;;;;;4.45;4.25;;;;;;;0.28;100.00;91150.69;2108942;28;20529;-78
2024/01/17 04:34:38;;;;;;;4.00;3.80;;;;;;;0.30;100.00;91145.03;2096524;28;20027;-77
2024/01/17 04:35:39;;;;;;;3.50;3.30;;;;;;;0.14;100.00;91145.66;2092050;28;20032;-79
2024/01/17 04:36:41;;;;;;;3.42;3.22;;;;;;;0.19;100.00;91155.72;2091850;28;20500;-78
2024/01/17 04:37:41;;;;;;;3.30;3.10;;;;;;;0.31;100.00;91144.66;2090752;28;20068;-79
2024/01/17 04:38:43;;;;;;;3.42;3.22;;;;;;;0.14;100.00;91143.03;2089859;28;20436;-79
2024/01/17 04:39:44;;;;;;;3.33;3.13;;;;;;;0.22;100.00;91139.91;2090405;28;20031;-80
2024/01/17 04:40:45;;;;;;;3.38;3.17;;;;;;;0.24;100.00;91142.13;2090183;28;20021;-80
2024/01/17 04:41:46;;;;;;;2.90;2.70;;;;;;;0.30;100.00;91143.13;2100615;28;20139;-80
2024/01/17 04:42:50;;;;;;;3.10;2.90;;;;;;;0.36;100.00;91133.69;2099854;28;20107;-78
2024/01/17 04:43:51;;;;;;;3.40;3.20;;;;;;;0.37;100.00;91126.53;2099346;28;20036;-81
2024/01/17 04:44:52;;;;;;;3.25;3.05;;;;;;;0.24;100.00;91137.59;2104181;28;20018;-79
2024/01/17 04:45:53;;;;;;;3.13;2.92;;;;;;;0.23;100.00;91133.50;2097089;28;20055;-81